Weather at JGSDF Camp Shimamatsu Heliport

Public forecast

Using degrees Celsius for public forecast. Weather courtesy of forecast.io.

Closest aviation weather report (METAR) to JGSDF Camp Shimamatsu Heliport

Report is more than 6 hours old.

Closest report is JASDF Chitose Air Base, 8.6 nm (15.9 km) SE. Retrieved 2011/10/06 15:28 UTC (10 years ago):

RJCJ 061528Z 13015KT 9999 -SHRA FEW005 BKN035 BKN060 13/12 Q1000 RMK 1ST005 6CU035 7SC060 A2954

Closest aviation forecast (TAF) to JGSDF Camp Shimamatsu Heliport

Closest forecast is New Chitose Airport, 10.2 nm (18.8 km) SE. Retrieved 2021/05/18 06:30 UTC (1 hour ago):

TAF RJCC 180505Z 1806/1912 17012KT 9999 FEW008 BKN015 TEMPO 1808/1812 4000 BR FEW005 BKN008 TEMPO 1812/1815 1500 BR FEW003 BKN005 TEMPO 1815/1900 0700 FG VV001 TEMPO 1906/1912 4000 -SHRA BR FEW005 BKN008